sensor_id;sensor_type;location;lat;lon;timestamp;P1;durP1;ratioP1;P2;durP2;ratioP2
17091;SDS011;8661;45.700;4.880;2022-09-09T00:00:11;2.40;;;1.40;;
17091;SDS011;8661;45.700;4.880;2022-09-09T00:02:40;2.80;;;1.60;;
17091;SDS011;8661;45.700;4.880;2022-09-09T00:05:17;3.93;;;1.40;;
17091;SDS011;8661;45.700;4.880;2022-09-09T00:07:52;4.50;;;1.30;;
17091;SDS011;8661;45.700;4.880;2022-09-09T00:10:22;4.83;;;1.50;;
17091;SDS011;8661;45.700;4.880;2022-09-09T00:12:55;4.07;;;1.50;;
17091;SDS011;8661;45.700;4.880;2022-09-09T00:15:29;5.70;;;1.50;;
17091;SDS011;8661;45.700;4.880;2022-09-09T00:18:05;5.57;;;1.40;;
17091;SDS011;8661;45.700;4.880;2022-09-09T00:20:43;4.07;;;1.60;;
17091;SDS011;8661;45.700;4.880;2022-09-09T00:23:18;3.53;;;1.60;;
17091;SDS011;8661;45.700;4.880;2022-09-09T00:25:53;3.03;;;1.40;;
17091;SDS011;8661;45.700;4.880;2022-09-09T00:28:26;2.30;;;1.20;;
17091;SDS011;8661;45.700;4.880;2022-09-09T00:31:00;2.67;;;1.50;;
17091;SDS011;8661;45.700;4.880;2022-09-09T00:33:38;5.33;;;1.67;;
17091;SDS011;8661;45.700;4.880;2022-09-09T00:36:12;6.47;;;1.57;;
17091;SDS011;8661;45.700;4.880;2022-09-09T00:38:42;2.30;;;1.07;;
17091;SDS011;8661;45.700;4.880;2022-09-09T00:41:14;2.67;;;1.47;;
17091;SDS011;8661;45.700;4.880;2022-09-09T00:43:50;2.93;;;1.27;;
17091;SDS011;8661;45.700;4.880;2022-09-09T00:46:32;3.57;;;1.20;;
17091;SDS011;8661;45.700;4.880;2022-09-09T00:49:15;3.07;;;1.20;;
17091;SDS011;8661;45.700;4.880;2022-09-09T00:51:55;4.23;;;1.30;;
17091;SDS011;8661;45.700;4.880;2022-09-09T00:54:34;4.30;;;1.30;;
17091;SDS011;8661;45.700;4.880;2022-09-09T00:57:21;2.50;;;1.20;;
17091;SDS011;8661;45.700;4.880;2022-09-09T00:59:56;4.53;;;1.37;;
17091;SDS011;8661;45.700;4.880;2022-09-09T01:02:31;3.23;;;1.30;;
17091;SDS011;8661;45.700;4.880;2022-09-09T01:05:07;3.93;;;1.47;;
17091;SDS011;8661;45.700;4.880;2022-09-09T01:07:41;6.00;;;1.30;;
17091;SDS011;8661;45.700;4.880;2022-09-09T01:10:15;2.57;;;1.43;;
17091;SDS011;8661;45.700;4.880;2022-09-09T01:12:52;4.27;;;1.50;;
17091;SDS011;8661;45.700;4.880;2022-09-09T01:15:25;2.70;;;1.30;;
17091;SDS011;8661;45.700;4.880;2022-09-09T01:17:56;2.10;;;1.30;;
17091;SDS011;8661;45.700;4.880;2022-09-09T01:20:29;3.10;;;1.10;;
17091;SDS011;8661;45.700;4.880;2022-09-09T01:23:08;2.60;;;1.10;;
17091;SDS011;8661;45.700;4.880;2022-09-09T01:26:02;2.90;;;1.40;;
17091;SDS011;8661;45.700;4.880;2022-09-09T01:28:41;4.70;;;1.57;;
17091;SDS011;8661;45.700;4.880;2022-09-09T01:31:11;3.70;;;1.70;;
17091;SDS011;8661;45.700;4.880;2022-09-09T01:33:41;2.60;;;1.37;;
17091;SDS011;8661;45.700;4.880;2022-09-09T01:36:09;4.53;;;1.40;;
17091;SDS011;8661;45.700;4.880;2022-09-09T01:38:38;4.07;;;1.50;;
17091;SDS011;8661;45.700;4.880;2022-09-09T01:41:07;3.83;;;1.40;;
17091;SDS011;8661;45.700;4.880;2022-09-09T01:43:34;3.77;;;1.57;;
17091;SDS011;8661;45.700;4.880;2022-09-09T01:46:01;2.97;;;1.50;;
17091;SDS011;8661;45.700;4.880;2022-09-09T01:48:28;3.93;;;1.70;;
17091;SDS011;8661;45.700;4.880;2022-09-09T01:50:56;7.87;;;1.80;;
17091;SDS011;8661;45.700;4.880;2022-09-09T01:53:23;3.73;;;1.60;;
17091;SDS011;8661;45.700;4.880;2022-09-09T01:55:53;3.67;;;1.77;;
17091;SDS011;8661;45.700;4.880;2022-09-09T01:58:33;6.27;;;1.53;;
17091;SDS011;8661;45.700;4.880;2022-09-09T02:01:12;4.00;;;1.70;;
17091;SDS011;8661;45.700;4.880;2022-09-09T02:03:49;3.60;;;1.40;;
17091;SDS011;8661;45.700;4.880;2022-09-09T02:06:27;3.47;;;1.50;;
17091;SDS011;8661;45.700;4.880;2022-09-09T02:09:04;3.27;;;1.70;;
17091;SDS011;8661;45.700;4.880;2022-09-09T02:11:38;4.80;;;1.53;;
17091;SDS011;8661;45.700;4.880;2022-09-09T02:14:10;3.30;;;1.60;;
17091;SDS011;8661;45.700;4.880;2022-09-09T02:16:43;2.80;;;1.40;;
17091;SDS011;8661;45.700;4.880;2022-09-09T02:19:15;5.30;;;1.70;;
17091;SDS011;8661;45.700;4.880;2022-09-09T02:21:48;5.33;;;1.67;;
17091;SDS011;8661;45.700;4.880;2022-09-09T02:24:16;2.20;;;1.30;;
17091;SDS011;8661;45.700;4.880;2022-09-09T02:26:44;6.30;;;1.90;;
17091;SDS011;8661;45.700;4.880;2022-09-09T02:29:16;4.07;;;1.83;;
17091;SDS011;8661;45.700;4.880;2022-09-09T02:31:46;3.10;;;1.80;;
17091;SDS011;8661;45.700;4.880;2022-09-09T02:34:15;3.20;;;1.50;;
17091;SDS011;8661;45.700;4.880;2022-09-09T02:36:45;3.43;;;1.40;;
17091;SDS011;8661;45.700;4.880;2022-09-09T02:39:14;4.13;;;1.73;;
17091;SDS011;8661;45.700;4.880;2022-09-09T02:41:41;5.90;;;1.77;;
17091;SDS011;8661;45.700;4.880;2022-09-09T02:44:09;4.40;;;1.40;;
17091;SDS011;8661;45.700;4.880;2022-09-09T02:46:48;2.30;;;1.17;;
17091;SDS011;8661;45.700;4.880;2022-09-09T02:49:31;3.10;;;1.40;;
17091;SDS011;8661;45.700;4.880;2022-09-09T02:52:07;7.60;;;1.73;;
17091;SDS011;8661;45.700;4.880;2022-09-09T02:54:38;3.80;;;1.33;;
17091;SDS011;8661;45.700;4.880;2022-09-09T02:57:06;4.50;;;1.60;;
17091;SDS011;8661;45.700;4.880;2022-09-09T02:59:36;4.27;;;2.03;;
17091;SDS011;8661;45.700;4.880;2022-09-09T03:02:05;4.53;;;1.70;;
17091;SDS011;8661;45.700;4.880;2022-09-09T03:04:32;3.00;;;1.40;;
17091;SDS011;8661;45.700;4.880;2022-09-09T03:06:59;1.60;;;1.40;;
17091;SDS011;8661;45.700;4.880;2022-09-09T03:09:26;2.27;;;1.43;;
17091;SDS011;8661;45.700;4.880;2022-09-09T03:11:53;2.90;;;1.47;;
17091;SDS011;8661;45.700;4.880;2022-09-09T03:14:20;3.97;;;1.90;;
17091;SDS011;8661;45.700;4.880;2022-09-09T03:16:50;5.73;;;1.70;;
17091;SDS011;8661;45.700;4.880;2022-09-09T03:19:18;5.97;;;1.57;;
17091;SDS011;8661;45.700;4.880;2022-09-09T03:21:46;4.13;;;1.40;;
17091;SDS011;8661;45.700;4.880;2022-09-09T03:24:14;4.50;;;1.40;;
17091;SDS011;8661;45.700;4.880;2022-09-09T03:26:41;3.00;;;1.57;;
17091;SDS011;8661;45.700;4.880;2022-09-09T03:29:09;5.90;;;1.83;;
17091;SDS011;8661;45.700;4.880;2022-09-09T03:31:38;6.07;;;1.90;;
17091;SDS011;8661;45.700;4.880;2022-09-09T03:34:05;4.87;;;1.60;;
17091;SDS011;8661;45.700;4.880;2022-09-09T03:36:34;2.00;;;1.47;;
17091;SDS011;8661;45.700;4.880;2022-09-09T03:39:01;7.67;;;1.47;;
17091;SDS011;8661;45.700;4.880;2022-09-09T03:41:29;3.70;;;1.80;;
17091;SDS011;8661;45.700;4.880;2022-09-09T03:43:56;5.70;;;1.70;;
17091;SDS011;8661;45.700;4.880;2022-09-09T03:46:24;5.47;;;1.73;;
17091;SDS011;8661;45.700;4.880;2022-09-09T03:48:51;2.63;;;1.60;;
17091;SDS011;8661;45.700;4.880;2022-09-09T03:51:19;4.23;;;1.90;;
17091;SDS011;8661;45.700;4.880;2022-09-09T03:53:47;5.40;;;1.87;;
17091;SDS011;8661;45.700;4.880;2022-09-09T03:56:14;6.27;;;2.20;;
17091;SDS011;8661;45.700;4.880;2022-09-09T03:58:41;2.43;;;1.77;;
17091;SDS011;8661;45.700;4.880;2022-09-09T04:01:09;5.03;;;2.10;;
17091;SDS011;8661;45.700;4.880;2022-09-09T04:03:38;5.30;;;2.17;;
17091;SDS011;8661;45.700;4.880;2022-09-09T04:06:06;3.37;;;1.70;;
17091;SDS011;8661;45.700;4.880;2022-09-09T04:08:34;2.53;;;1.80;;
17091;SDS011;8661;45.700;4.880;2022-09-09T04:11:05;8.90;;;2.13;;
17091;SDS011;8661;45.700;4.880;2022-09-09T04:13:32;9.80;;;1.80;;
17091;SDS011;8661;45.700;4.880;2022-09-09T04:16:00;2.30;;;1.30;;
17091;SDS011;8661;45.700;4.880;2022-09-09T04:18:29;1.93;;;1.33;;
17091;SDS011;8661;45.700;4.880;2022-09-09T04:20:56;3.80;;;1.70;;
17091;SDS011;8661;45.700;4.880;2022-09-09T04:23:24;5.10;;;1.70;;
17091;SDS011;8661;45.700;4.880;2022-09-09T04:25:53;5.27;;;1.40;;
17091;SDS011;8661;45.700;4.880;2022-09-09T04:28:23;5.37;;;1.80;;
17091;SDS011;8661;45.700;4.880;2022-09-09T04:30:52;4.13;;;1.60;;
17091;SDS011;8661;45.700;4.880;2022-09-09T04:33:20;3.77;;;1.60;;
17091;SDS011;8661;45.700;4.880;2022-09-09T04:35:47;4.20;;;1.73;;
17091;SDS011;8661;45.700;4.880;2022-09-09T04:38:15;3.47;;;1.60;;
17091;SDS011;8661;45.700;4.880;2022-09-09T04:40:43;7.13;;;1.63;;
17091;SDS011;8661;45.700;4.880;2022-09-09T04:43:12;5.20;;;2.13;;
17091;SDS011;8661;45.700;4.880;2022-09-09T04:45:41;2.13;;;1.50;;
17091;SDS011;8661;45.700;4.880;2022-09-09T04:48:09;5.63;;;1.83;;
17091;SDS011;8661;45.700;4.880;2022-09-09T04:50:36;4.57;;;2.07;;
17091;SDS011;8661;45.700;4.880;2022-09-09T04:53:03;3.30;;;1.70;;
17091;SDS011;8661;45.700;4.880;2022-09-09T04:55:31;7.20;;;2.27;;
17091;SDS011;8661;45.700;4.880;2022-09-09T04:58:02;5.23;;;1.80;;
17091;SDS011;8661;45.700;4.880;2022-09-09T05:00:30;5.80;;;2.10;;
17091;SDS011;8661;45.700;4.880;2022-09-09T05:03:01;4.57;;;1.93;;
17091;SDS011;8661;45.700;4.880;2022-09-09T05:05:29;6.50;;;2.20;;
17091;SDS011;8661;45.700;4.880;2022-09-09T05:08:00;4.97;;;2.20;;
17091;SDS011;8661;45.700;4.880;2022-09-09T05:10:28;3.93;;;2.27;;
17091;SDS011;8661;45.700;4.880;2022-09-09T05:12:55;6.20;;;2.20;;
17091;SDS011;8661;45.700;4.880;2022-09-09T05:15:22;5.87;;;2.33;;
17091;SDS011;8661;45.700;4.880;2022-09-09T05:17:49;4.23;;;2.20;;
17091;SDS011;8661;45.700;4.880;2022-09-09T05:20:19;6.00;;;2.40;;
17091;SDS011;8661;45.700;4.880;2022-09-09T05:22:46;4.40;;;1.97;;
17091;SDS011;8661;45.700;4.880;2022-09-09T05:25:14;6.80;;;2.70;;
17091;SDS011;8661;45.700;4.880;2022-09-09T05:27:41;3.33;;;2.20;;
17091;SDS011;8661;45.700;4.880;2022-09-09T05:30:08;7.13;;;2.47;;
17091;SDS011;8661;45.700;4.880;2022-09-09T05:32:35;4.00;;;2.10;;
17091;SDS011;8661;45.700;4.880;2022-09-09T05:35:03;27.73;;;3.20;;
17091;SDS011;8661;45.700;4.880;2022-09-09T05:37:31;28.20;;;3.17;;
17091;SDS011;8661;45.700;4.880;2022-09-09T05:39:58;43.00;;;4.27;;
17091;SDS011;8661;45.700;4.880;2022-09-09T05:42:59;40.73;;;3.60;;
17091;SDS011;8661;45.700;4.880;2022-09-09T05:45:26;19.40;;;3.50;;
17091;SDS011;8661;45.700;4.880;2022-09-09T05:47:53;28.53;;;3.60;;
17091;SDS011;8661;45.700;4.880;2022-09-09T05:50:20;38.27;;;3.77;;
17091;SDS011;8661;45.700;4.880;2022-09-09T05:52:49;22.13;;;3.50;;
17091;SDS011;8661;45.700;4.880;2022-09-09T05:55:16;11.00;;;3.37;;
17091;SDS011;8661;45.700;4.880;2022-09-09T05:57:47;10.50;;;2.40;;
17091;SDS011;8661;45.700;4.880;2022-09-09T06:00:17;18.70;;;3.07;;
17091;SDS011;8661;45.700;4.880;2022-09-09T06:02:49;8.23;;;2.53;;
17091;SDS011;8661;45.700;4.880;2022-09-09T06:05:17;10.23;;;3.00;;
17091;SDS011;8661;45.700;4.880;2022-09-09T06:07:44;8.90;;;3.10;;
17091;SDS011;8661;45.700;4.880;2022-09-09T06:10:14;5.30;;;1.80;;
17091;SDS011;8661;45.700;4.880;2022-09-09T06:12:41;6.13;;;2.53;;
17091;SDS011;8661;45.700;4.880;2022-09-09T06:15:09;6.60;;;2.00;;
17091;SDS011;8661;45.700;4.880;2022-09-09T06:17:37;3.87;;;1.70;;
17091;SDS011;8661;45.700;4.880;2022-09-09T06:20:05;4.43;;;2.20;;
17091;SDS011;8661;45.700;4.880;2022-09-09T06:22:34;4.63;;;1.90;;
17091;SDS011;8661;45.700;4.880;2022-09-09T06:25:01;5.03;;;1.73;;
17091;SDS011;8661;45.700;4.880;2022-09-09T06:27:30;5.07;;;1.80;;
17091;SDS011;8661;45.700;4.880;2022-09-09T06:29:57;5.53;;;2.13;;
17091;SDS011;8661;45.700;4.880;2022-09-09T06:32:24;2.97;;;1.87;;
17091;SDS011;8661;45.700;4.880;2022-09-09T06:34:52;8.50;;;2.10;;
17091;SDS011;8661;45.700;4.880;2022-09-09T06:37:19;4.10;;;1.90;;
17091;SDS011;8661;45.700;4.880;2022-09-09T06:39:49;7.03;;;1.70;;
17091;SDS011;8661;45.700;4.880;2022-09-09T06:42:16;3.03;;;1.40;;
17091;SDS011;8661;45.700;4.880;2022-09-09T06:44:45;5.67;;;1.67;;
17091;SDS011;8661;45.700;4.880;2022-09-09T06:47:13;3.97;;;1.67;;
17091;SDS011;8661;45.700;4.880;2022-09-09T06:49:40;3.57;;;1.80;;
17091;SDS011;8661;45.700;4.880;2022-09-09T06:52:08;7.10;;;1.60;;
17091;SDS011;8661;45.700;4.880;2022-09-09T06:54:35;3.27;;;1.43;;
17091;SDS011;8661;45.700;4.880;2022-09-09T06:57:03;3.10;;;1.30;;
17091;SDS011;8661;45.700;4.880;2022-09-09T06:59:32;3.80;;;1.37;;
17091;SDS011;8661;45.700;4.880;2022-09-09T07:02:00;6.67;;;1.97;;
17091;SDS011;8661;45.700;4.880;2022-09-09T07:04:27;6.30;;;1.63;;
17091;SDS011;8661;45.700;4.880;2022-09-09T07:06:54;4.57;;;1.83;;
17091;SDS011;8661;45.700;4.880;2022-09-09T07:09:21;4.20;;;1.37;;
17091;SDS011;8661;45.700;4.880;2022-09-09T07:11:49;5.90;;;2.00;;
17091;SDS011;8661;45.700;4.880;2022-09-09T07:14:17;7.83;;;2.33;;
17091;SDS011;8661;45.700;4.880;2022-09-09T07:16:45;3.97;;;2.07;;
17091;SDS011;8661;45.700;4.880;2022-09-09T07:19:13;8.20;;;2.20;;
17091;SDS011;8661;45.700;4.880;2022-09-09T07:21:41;5.63;;;2.30;;
17091;SDS011;8661;45.700;4.880;2022-09-09T07:24:08;4.10;;;1.60;;
17091;SDS011;8661;45.700;4.880;2022-09-09T07:26:36;3.83;;;1.57;;
17091;SDS011;8661;45.700;4.880;2022-09-09T07:29:04;4.37;;;1.53;;
17091;SDS011;8661;45.700;4.880;2022-09-09T07:31:32;2.90;;;1.40;;
17091;SDS011;8661;45.700;4.880;2022-09-09T07:34:01;4.30;;;1.47;;
17091;SDS011;8661;45.700;4.880;2022-09-09T07:36:31;3.53;;;1.50;;
17091;SDS011;8661;45.700;4.880;2022-09-09T07:38:59;5.67;;;1.67;;
17091;SDS011;8661;45.700;4.880;2022-09-09T07:41:29;5.93;;;1.23;;
17091;SDS011;8661;45.700;4.880;2022-09-09T07:43:59;5.57;;;1.23;;
17091;SDS011;8661;45.700;4.880;2022-09-09T07:46:29;2.50;;;1.10;;
17091;SDS011;8661;45.700;4.880;2022-09-09T07:48:57;4.80;;;1.20;;
17091;SDS011;8661;45.700;4.880;2022-09-09T07:51:24;3.70;;;1.43;;
17091;SDS011;8661;45.700;4.880;2022-09-09T07:53:54;3.17;;;1.30;;
17091;SDS011;8661;45.700;4.880;2022-09-09T07:56:24;5.77;;;1.50;;
17091;SDS011;8661;45.700;4.880;2022-09-09T07:58:52;2.93;;;1.40;;
17091;SDS011;8661;45.700;4.880;2022-09-09T08:01:21;3.53;;;1.50;;
17091;SDS011;8661;45.700;4.880;2022-09-09T08:03:52;4.80;;;1.17;;
17091;SDS011;8661;45.700;4.880;2022-09-09T08:06:20;7.03;;;1.27;;
17091;SDS011;8661;45.700;4.880;2022-09-09T08:08:50;5.57;;;1.43;;
17091;SDS011;8661;45.700;4.880;2022-09-09T08:11:18;3.43;;;1.20;;
17091;SDS011;8661;45.700;4.880;2022-09-09T08:13:46;3.77;;;1.80;;
17091;SDS011;8661;45.700;4.880;2022-09-09T08:16:14;2.70;;;1.20;;
17091;SDS011;8661;45.700;4.880;2022-09-09T08:18:42;2.90;;;1.10;;
17091;SDS011;8661;45.700;4.880;2022-09-09T08:21:10;1.27;;;0.80;;
17091;SDS011;8661;45.700;4.880;2022-09-09T08:23:39;5.03;;;1.10;;
17091;SDS011;8661;45.700;4.880;2022-09-09T08:26:09;4.60;;;1.35;;
17091;SDS011;8661;45.700;4.880;2022-09-09T08:28:39;2.80;;;1.23;;
17091;SDS011;8661;45.700;4.880;2022-09-09T08:31:07;1.63;;;0.97;;
17091;SDS011;8661;45.700;4.880;2022-09-09T08:33:35;2.07;;;1.00;;
17091;SDS011;8661;45.700;4.880;2022-09-09T08:36:04;3.37;;;0.80;;
17091;SDS011;8661;45.700;4.880;2022-09-09T08:38:33;5.80;;;1.00;;
17091;SDS011;8661;45.700;4.880;2022-09-09T08:41:03;2.60;;;0.80;;
17091;SDS011;8661;45.700;4.880;2022-09-09T08:43:44;4.30;;;1.17;;
17091;SDS011;8661;45.700;4.880;2022-09-09T08:46:14;2.73;;;0.83;;
17091;SDS011;8661;45.700;4.880;2022-09-09T08:48:48;3.23;;;1.10;;
17091;SDS011;8661;45.700;4.880;2022-09-09T08:51:21;1.53;;;0.93;;
17091;SDS011;8661;45.700;4.880;2022-09-09T08:53:51;4.93;;;1.20;;
17091;SDS011;8661;45.700;4.880;2022-09-09T08:56:21;1.67;;;0.77;;
17091;SDS011;8661;45.700;4.880;2022-09-09T08:58:52;2.23;;;0.80;;
17091;SDS011;8661;45.700;4.880;2022-09-09T09:01:33;3.67;;;0.93;;
17091;SDS011;8661;45.700;4.880;2022-09-09T09:04:11;4.60;;;1.00;;
17091;SDS011;8661;45.700;4.880;2022-09-09T09:06:48;1.13;;;0.60;;
17091;SDS011;8661;45.700;4.880;2022-09-09T09:09:21;5.07;;;0.80;;
17091;SDS011;8661;45.700;4.880;2022-09-09T09:11:53;2.83;;;0.83;;
17091;SDS011;8661;45.700;4.880;2022-09-09T09:14:28;2.30;;;0.67;;
17091;SDS011;8661;45.700;4.880;2022-09-09T09:16:59;3.13;;;0.80;;
17091;SDS011;8661;45.700;4.880;2022-09-09T09:19:29;2.30;;;0.53;;
17091;SDS011;8661;45.700;4.880;2022-09-09T09:21:59;5.47;;;1.00;;
17091;SDS011;8661;45.700;4.880;2022-09-09T09:24:35;5.63;;;0.90;;
17091;SDS011;8661;45.700;4.880;2022-09-09T09:27:12;3.22;;;1.00;;
17091;SDS011;8661;45.700;4.880;2022-09-09T09:29:42;2.90;;;0.83;;
17091;SDS011;8661;45.700;4.880;2022-09-09T09:32:11;3.23;;;1.57;;
17091;SDS011;8661;45.700;4.880;2022-09-09T09:34:48;2.40;;;0.53;;
17091;SDS011;8661;45.700;4.880;2022-09-09T09:37:16;2.33;;;0.77;;
17091;SDS011;8661;45.700;4.880;2022-09-09T09:39:49;2.70;;;1.00;;
17091;SDS011;8661;45.700;4.880;2022-09-09T09:42:17;2.80;;;0.90;;
17091;SDS011;8661;45.700;4.880;2022-09-09T09:44:46;8.47;;;2.33;;
17091;SDS011;8661;45.700;4.880;2022-09-09T09:47:14;7.97;;;1.47;;
17091;SDS011;8661;45.700;4.880;2022-09-09T09:49:50;2.43;;;0.70;;
17091;SDS011;8661;45.700;4.880;2022-09-09T09:52:21;1.77;;;0.50;;
17091;SDS011;8661;45.700;4.880;2022-09-09T09:54:49;1.47;;;0.60;;
17091;SDS011;8661;45.700;4.880;2022-09-09T09:57:18;1.73;;;0.50;;
17091;SDS011;8661;45.700;4.880;2022-09-09T10:00:02;1.10;;;0.57;;
17091;SDS011;8661;45.700;4.880;2022-09-09T10:02:39;3.97;;;0.80;;
17091;SDS011;8661;45.700;4.880;2022-09-09T10:05:12;1.80;;;0.63;;
17091;SDS011;8661;45.700;4.880;2022-09-09T10:07:40;4.47;;;0.90;;
17091;SDS011;8661;45.700;4.880;2022-09-09T10:10:12;2.40;;;0.70;;
17091;SDS011;8661;45.700;4.880;2022-09-09T10:12:46;2.40;;;0.87;;
17091;SDS011;8661;45.700;4.880;2022-09-09T10:15:29;6.60;;;0.80;;
17091;SDS011;8661;45.700;4.880;2022-09-09T10:18:06;1.90;;;0.60;;
17091;SDS011;8661;45.700;4.880;2022-09-09T10:20:45;1.10;;;0.40;;
17091;SDS011;8661;45.700;4.880;2022-09-09T10:23:24;2.90;;;0.63;;
17091;SDS011;8661;45.700;4.880;2022-09-09T10:26:04;2.43;;;0.70;;
17091;SDS011;8661;45.700;4.880;2022-09-09T10:28:50;2.63;;;0.40;;
17091;SDS011;8661;45.700;4.880;2022-09-09T10:31:31;2.93;;;0.80;;
17091;SDS011;8661;45.700;4.880;2022-09-09T10:34:10;0.93;;;0.50;;
17091;SDS011;8661;45.700;4.880;2022-09-09T10:36:46;2.50;;;0.80;;
17091;SDS011;8661;45.700;4.880;2022-09-09T10:39:18;3.20;;;0.67;;
17091;SDS011;8661;45.700;4.880;2022-09-09T10:41:59;2.00;;;0.50;;
17091;SDS011;8661;45.700;4.880;2022-09-09T10:44:34;1.53;;;0.57;;
17091;SDS011;8661;45.700;4.880;2022-09-09T10:47:20;1.33;;;0.60;;
17091;SDS011;8661;45.700;4.880;2022-09-09T10:50:10;2.53;;;0.80;;
17091;SDS011;8661;45.700;4.880;2022-09-09T10:52:50;0.93;;;0.30;;
17091;SDS011;8661;45.700;4.880;2022-09-09T10:55:25;2.40;;;0.57;;
17091;SDS011;8661;45.700;4.880;2022-09-09T10:58:01;1.67;;;0.57;;
17091;SDS011;8661;45.700;4.880;2022-09-09T11:00:35;2.63;;;0.63;;
17091;SDS011;8661;45.700;4.880;2022-09-09T11:03:11;2.95;;;0.38;;
17091;SDS011;8661;45.700;4.880;2022-09-09T11:05:45;2.00;;;0.60;;
17091;SDS011;8661;45.700;4.880;2022-09-09T11:08:17;2.65;;;0.63;;
17091;SDS011;8661;45.700;4.880;2022-09-09T11:10:46;2.95;;;0.60;;
17091;SDS011;8661;45.700;4.880;2022-09-09T11:13:21;2.05;;;0.82;;
17091;SDS011;8661;45.700;4.880;2022-09-09T11:15:53;2.80;;;0.63;;
17091;SDS011;8661;45.700;4.880;2022-09-09T11:18:27;2.75;;;0.60;;
17091;SDS011;8661;45.700;4.880;2022-09-09T11:20:58;1.80;;;0.70;;
17091;SDS011;8661;45.700;4.880;2022-09-09T11:23:29;1.10;;;0.60;;
17091;SDS011;8661;45.700;4.880;2022-09-09T11:26:04;1.43;;;0.60;;
17091;SDS011;8661;45.700;4.880;2022-09-09T11:28:38;1.57;;;0.60;;
17091;SDS011;8661;45.700;4.880;2022-09-09T11:31:21;1.85;;;0.50;;
17091;SDS011;8661;45.700;4.880;2022-09-09T11:34:12;3.17;;;0.80;;
17091;SDS011;8661;45.700;4.880;2022-09-09T11:36:56;2.17;;;0.67;;
17091;SDS011;8661;45.700;4.880;2022-09-09T11:39:42;2.17;;;0.53;;
17091;SDS011;8661;45.700;4.880;2022-09-09T11:42:19;2.33;;;0.60;;
17091;SDS011;8661;45.700;4.880;2022-09-09T11:44:48;1.67;;;0.50;;
17091;SDS011;8661;45.700;4.880;2022-09-09T11:47:19;1.50;;;0.40;;
17091;SDS011;8661;45.700;4.880;2022-09-09T11:49:51;2.63;;;0.80;;
17091;SDS011;8661;45.700;4.880;2022-09-09T11:52:22;1.00;;;0.60;;
17091;SDS011;8661;45.700;4.880;2022-09-09T11:54:51;1.73;;;0.43;;
17091;SDS011;8661;45.700;4.880;2022-09-09T11:57:30;3.73;;;0.53;;
17091;SDS011;8661;45.700;4.880;2022-09-09T12:00:00;1.97;;;0.60;;
17091;SDS011;8661;45.700;4.880;2022-09-09T12:02:28;2.33;;;0.60;;
17091;SDS011;8661;45.700;4.880;2022-09-09T12:04:59;1.10;;;0.50;;
17091;SDS011;8661;45.700;4.880;2022-09-09T12:07:33;1.87;;;0.60;;
17091;SDS011;8661;45.700;4.880;2022-09-09T12:10:05;1.97;;;0.57;;
17091;SDS011;8661;45.700;4.880;2022-09-09T12:12:46;3.83;;;0.70;;
17091;SDS011;8661;45.700;4.880;2022-09-09T12:15:20;2.40;;;0.60;;
17091;SDS011;8661;45.700;4.880;2022-09-09T12:17:53;1.05;;;0.52;;
17091;SDS011;8661;45.700;4.880;2022-09-09T12:20:23;1.85;;;0.70;;
17091;SDS011;8661;45.700;4.880;2022-09-09T12:26:06;0.75;;;0.38;;
17091;SDS011;8661;45.700;4.880;2022-09-09T12:28:59;1.52;;;0.43;;
17091;SDS011;8661;45.700;4.880;2022-09-09T12:31:35;2.42;;;0.85;;
17091;SDS011;8661;45.700;4.880;2022-09-09T12:34:09;1.63;;;0.40;;
17091;SDS011;8661;45.700;4.880;2022-09-09T12:36:40;1.50;;;0.40;;
17091;SDS011;8661;45.700;4.880;2022-09-09T12:39:12;1.08;;;0.40;;
17091;SDS011;8661;45.700;4.880;2022-09-09T12:41:52;3.50;;;0.40;;
17091;SDS011;8661;45.700;4.880;2022-09-09T12:44:22;2.78;;;0.63;;
17091;SDS011;8661;45.700;4.880;2022-09-09T12:46:50;2.00;;;0.57;;
17091;SDS011;8661;45.700;4.880;2022-09-09T12:49:30;2.25;;;0.68;;
17091;SDS011;8661;45.700;4.880;2022-09-09T12:52:02;1.15;;;0.70;;
17091;SDS011;8661;45.700;4.880;2022-09-09T12:54:32;1.52;;;0.50;;
17091;SDS011;8661;45.700;4.880;2022-09-09T12:57:00;3.33;;;0.47;;
17091;SDS011;8661;45.700;4.880;2022-09-09T12:59:35;1.20;;;0.55;;
17091;SDS011;8661;45.700;4.880;2022-09-09T13:02:11;2.00;;;0.60;;
17091;SDS011;8661;45.700;4.880;2022-09-09T13:04:46;2.47;;;0.82;;
17091;SDS011;8661;45.700;4.880;2022-09-09T13:07:16;1.23;;;0.68;;
17091;SDS011;8661;45.700;4.880;2022-09-09T13:09:44;3.92;;;0.75;;
17091;SDS011;8661;45.700;4.880;2022-09-09T13:12:14;0.93;;;0.52;;
17091;SDS011;8661;45.700;4.880;2022-09-09T13:14:44;1.88;;;0.60;;
17091;SDS011;8661;45.700;4.880;2022-09-09T13:17:18;1.73;;;0.80;;
17091;SDS011;8661;45.700;4.880;2022-09-09T13:19:47;3.90;;;0.90;;
17091;SDS011;8661;45.700;4.880;2022-09-09T13:22:21;2.00;;;0.65;;
17091;SDS011;8661;45.700;4.880;2022-09-09T13:24:59;2.22;;;0.68;;
17091;SDS011;8661;45.700;4.880;2022-09-09T13:27:32;1.42;;;0.47;;
17091;SDS011;8661;45.700;4.880;2022-09-09T13:30:00;2.75;;;0.80;;
17091;SDS011;8661;45.700;4.880;2022-09-09T13:32:27;1.83;;;0.40;;
17091;SDS011;8661;45.700;4.880;2022-09-09T13:34:57;2.90;;;0.50;;
17091;SDS011;8661;45.700;4.880;2022-09-09T13:37:28;2.30;;;0.50;;
17091;SDS011;8661;45.700;4.880;2022-09-09T13:40:00;3.30;;;0.52;;
17091;SDS011;8661;45.700;4.880;2022-09-09T13:42:28;1.50;;;0.60;;
17091;SDS011;8661;45.700;4.880;2022-09-09T13:44:57;1.15;;;0.45;;
17091;SDS011;8661;45.700;4.880;2022-09-09T13:47:29;1.65;;;0.50;;
17091;SDS011;8661;45.700;4.880;2022-09-09T13:49:58;1.58;;;0.50;;
17091;SDS011;8661;45.700;4.880;2022-09-09T13:52:45;1.85;;;0.70;;
17091;SDS011;8661;45.700;4.880;2022-09-09T13:55:12;2.40;;;0.50;;
17091;SDS011;8661;45.700;4.880;2022-09-09T13:57:39;1.02;;;0.50;;
17091;SDS011;8661;45.700;4.880;2022-09-09T14:00:17;2.42;;;0.65;;
17091;SDS011;8661;45.700;4.880;2022-09-09T14:02:44;1.35;;;0.50;;
17091;SDS011;8661;45.700;4.880;2022-09-09T14:05:11;3.40;;;0.68;;
17091;SDS011;8661;45.700;4.880;2022-09-09T14:07:38;1.52;;;0.70;;
17091;SDS011;8661;45.700;4.880;2022-09-09T14:10:08;2.22;;;0.63;;
17091;SDS011;8661;45.700;4.880;2022-09-09T14:12:36;6.47;;;0.60;;
17091;SDS011;8661;45.700;4.880;2022-09-09T14:15:03;2.80;;;0.55;;
17091;SDS011;8661;45.700;4.880;2022-09-09T14:17:32;0.83;;;0.40;;
17091;SDS011;8661;45.700;4.880;2022-09-09T14:20:01;2.10;;;0.87;;
17091;SDS011;8661;45.700;4.880;2022-09-09T14:22:28;1.20;;;0.53;;
17091;SDS011;8661;45.700;4.880;2022-09-09T14:24:55;1.73;;;0.60;;
17091;SDS011;8661;45.700;4.880;2022-09-09T14:27:24;0.88;;;0.50;;
17091;SDS011;8661;45.700;4.880;2022-09-09T14:29:52;1.65;;;0.47;;
17091;SDS011;8661;45.700;4.880;2022-09-09T14:32:19;2.72;;;0.80;;
17091;SDS011;8661;45.700;4.880;2022-09-09T14:34:47;2.53;;;0.93;;
17091;SDS011;8661;45.700;4.880;2022-09-09T14:37:15;3.72;;;1.38;;
17091;SDS011;8661;45.700;4.880;2022-09-09T14:39:42;1.95;;;0.57;;
17091;SDS011;8661;45.700;4.880;2022-09-09T14:42:09;1.20;;;0.52;;
17091;SDS011;8661;45.700;4.880;2022-09-09T14:44:38;0.82;;;0.60;;
17091;SDS011;8661;45.700;4.880;2022-09-09T14:47:05;2.63;;;0.65;;
17091;SDS011;8661;45.700;4.880;2022-09-09T14:49:33;0.90;;;0.50;;
17091;SDS011;8661;45.700;4.880;2022-09-09T14:52:00;2.13;;;0.55;;
17091;SDS011;8661;45.700;4.880;2022-09-09T14:54:27;2.53;;;0.70;;
17091;SDS011;8661;45.700;4.880;2022-09-09T14:56:55;1.23;;;0.45;;
17091;SDS011;8661;45.700;4.880;2022-09-09T14:59:22;4.63;;;0.50;;
17091;SDS011;8661;45.700;4.880;2022-09-09T15:01:50;1.33;;;0.55;;
17091;SDS011;8661;45.700;4.880;2022-09-09T15:04:18;2.72;;;0.60;;
17091;SDS011;8661;45.700;4.880;2022-09-09T15:06:45;1.58;;;0.50;;
17091;SDS011;8661;45.700;4.880;2022-09-09T15:09:13;1.70;;;0.50;;
17091;SDS011;8661;45.700;4.880;2022-09-09T15:11:40;1.45;;;0.70;;
17091;SDS011;8661;45.700;4.880;2022-09-09T15:14:09;1.47;;;0.70;;
17091;SDS011;8661;45.700;4.880;2022-09-09T15:16:37;2.28;;;0.77;;
17091;SDS011;8661;45.700;4.880;2022-09-09T15:19:06;1.50;;;0.65;;
17091;SDS011;8661;45.700;4.880;2022-09-09T15:21:35;1.60;;;0.57;;
17091;SDS011;8661;45.700;4.880;2022-09-09T15:24:03;1.60;;;0.53;;
17091;SDS011;8661;45.700;4.880;2022-09-09T15:26:33;3.13;;;1.03;;